Terminal Aerodrome Forecast
Issued by NWS North Platte, NE

Home | Current Version | Previous Version | Graphics & Text | Print | Product List | Glossary On
Versions: 1 2 3 4 5 6 7 8 9 10 11 12 13 14 15
554
FTUS43 KLBF 251730
TAFVTN
TAF
KVTN 251730Z 2518/2618 33009KT P6SM SCT250
     FM260000 VRB05KT P6SM SCT200
     FM261500 15009KT P6SM BKN150=

USA.gov is the U.S. government's official web portal to all federal, state and local government web resources and services.